Terminal Aerodrome Forecast
Issued by NWS Shreveport, LA

Home | Current Version | Previous Version | Text Only | Print | Product List | Glossary On
Versions: 1 2 3 4 5 6 7 8 9 10 11 12 13 14
000
FTUS44 KSHV 201100
TAFTXK
TAF
KTXK 201120Z 2012/2112 VRB03KT P6SM BKN250
     FM201600 17007KT P6SM SCT060 BKN250
     FM210100 15004KT P6SM BKN060 BKN150 BKN250
     FM210300 15004KT P6SM VCTS BKN060CB OVC250
     FM210600 18005KT 5SM -TSRA BR OVC060CB=

USA.gov is the U.S. government's official web portal to all federal, state and local government web resources and services.